createdAt,value
2022-12-15T00:01:11.457Z,97.51
2022-12-15T00:02:26.846Z,97.23
2022-12-15T00:03:42.430Z,97.77
2022-12-15T00:04:57.815Z,98.09
2022-12-15T00:06:12.712Z,97.87
2022-12-15T00:07:28.030Z,98.01
2022-12-15T00:08:43.377Z,98.47
2022-12-15T00:09:58.277Z,97.97
2022-12-15T00:11:13.866Z,98.30
2022-12-15T00:12:29.156Z,98.22
2022-12-15T00:13:44.106Z,98.22
2022-12-15T00:14:59.225Z,98.22
2022-12-15T00:16:14.276Z,97.91
2022-12-15T00:17:29.361Z,98.06
2022-12-15T00:18:44.343Z,97.55
2022-12-15T00:19:59.634Z,97.40
2022-12-15T00:21:18.733Z,97.34
2022-12-15T00:22:33.859Z,97.58
2022-12-15T00:23:48.830Z,97.65
2022-12-15T00:25:03.705Z,97.37
2022-12-15T00:26:18.680Z,97.08
2022-12-15T00:27:34.101Z,97.07
2022-12-15T00:28:48.979Z,97.22
2022-12-15T00:30:04.553Z,97.11
2022-12-15T00:31:19.513Z,97.41
2022-12-15T00:32:35.034Z,97.74
2022-12-15T00:33:50.226Z,98.24
2022-12-15T00:35:05.254Z,97.91
2022-12-15T00:36:20.476Z,97.99
2022-12-15T00:37:35.599Z,98.26
2022-12-15T00:38:47.621Z,98.33
2022-12-15T00:39:44.445Z,98.27
2022-12-15T00:40:41.071Z,98.57
2022-12-15T00:41:38.071Z,97.98
2022-12-15T00:42:34.630Z,97.87
2022-12-15T00:43:32.955Z,98.15
2022-12-15T00:44:30.416Z,98.13
2022-12-15T00:45:47.011Z,97.97
2022-12-15T00:46:55.499Z,97.86
2022-12-15T00:47:52.236Z,97.96
2022-12-15T00:48:49.178Z,98.21
2022-12-15T00:50:04.123Z,98.21
2022-12-15T00:51:00.827Z,98.25
2022-12-15T00:52:15.930Z,98.33
2022-12-15T00:53:31.158Z,98.21
2022-12-15T00:54:46.342Z,98.47
2022-12-15T00:56:01.328Z,98.11
2022-12-15T00:57:16.244Z,98.11
2022-12-15T00:58:31.320Z,98.12
2022-12-15T00:59:46.188Z,98.04
2022-12-15T01:01:01.250Z,98.39
2022-12-15T01:02:16.325Z,98.45
2022-12-15T01:03:34.289Z,98.61
2022-12-15T01:04:50.251Z,98.00
2022-12-15T01:06:05.486Z,97.96
2022-12-15T01:07:20.644Z,97.96
2022-12-15T01:08:35.634Z,97.80
2022-12-15T01:09:50.629Z,97.57
2022-12-15T01:11:06.040Z,97.71
2022-12-15T01:12:21.276Z,97.91
2022-12-15T01:13:36.315Z,98.18
2022-12-15T01:14:52.258Z,98.03
2022-12-15T01:16:07.149Z,98.31
2022-12-15T01:17:22.388Z,98.50
2022-12-15T01:18:37.331Z,98.01
2022-12-15T01:19:52.745Z,98.74
2022-12-15T01:21:02.699Z,98.53
2022-12-15T01:21:59.330Z,98.67
2022-12-15T01:22:56.207Z,98.28
2022-12-15T01:23:53.591Z,98.42
2022-12-15T01:24:50.287Z,98.56
2022-12-15T01:25:46.830Z,98.90
2022-12-15T01:26:46.444Z,98.74
2022-12-15T01:27:44.118Z,98.74
2022-12-15T01:28:40.853Z,99.06
2022-12-15T01:29:37.872Z,98.92
2022-12-15T01:30:34.468Z,99.09
2022-12-15T01:31:31.116Z,98.82
2022-12-15T01:32:27.956Z,98.87
2022-12-15T01:33:24.575Z,98.94
2022-12-15T01:34:22.780Z,99.25
2022-12-15T01:35:20.341Z,99.08
2022-12-15T01:36:16.916Z,99.04
2022-12-15T01:37:13.570Z,99.20
2022-12-15T01:38:11.059Z,99.17
2022-12-15T01:39:07.677Z,99.40
2022-12-15T01:40:24.664Z,99.26
2022-12-15T01:41:21.459Z,98.99
2022-12-15T01:42:18.416Z,99.30
2022-12-15T01:43:18.124Z,99.12
2022-12-15T01:44:21.885Z,98.98
2022-12-15T01:45:24.210Z,98.65
2022-12-15T01:46:23.471Z,98.53
2022-12-15T01:47:25.110Z,98.51
2022-12-15T01:48:27.591Z,98.30
2022-12-15T01:49:26.805Z,98.50
2022-12-15T01:50:24.784Z,98.49
2022-12-15T01:51:26.120Z,98.99
2022-12-15T01:52:22.857Z,99.11
2022-12-15T01:53:19.515Z,99.31
2022-12-15T01:54:23.929Z,99.22
2022-12-15T01:55:25.158Z,99.45
2022-12-15T01:56:24.952Z,99.46
2022-12-15T01:57:29.015Z,99.17
2022-12-15T01:58:26.611Z,99.16
2022-12-15T01:59:34.089Z,98.83
2022-12-15T02:00:31.004Z,98.63
2022-12-15T02:01:28.045Z,98.75
2022-12-15T02:02:28.132Z,98.50
2022-12-15T02:03:24.908Z,98.56
2022-12-15T02:04:23.830Z,98.78
2022-12-15T02:05:21.596Z,98.41
2022-12-15T02:06:21.758Z,98.09
2022-12-15T02:07:19.753Z,98.34
2022-12-15T02:08:17.189Z,98.13
2022-12-15T02:09:14.274Z,98.34
2022-12-15T02:10:12.004Z,98.44
2022-12-15T02:11:38.331Z,98.78
2022-12-15T02:12:43.807Z,98.69
2022-12-15T02:13:46.788Z,98.43
2022-12-15T02:14:58.399Z,98.51
2022-12-15T02:16:14.390Z,98.82
2022-12-15T02:17:37.263Z,99.02
2022-12-15T02:18:40.370Z,98.73
2022-12-15T02:20:04.867Z,99.15
2022-12-15T02:21:11.277Z,99.07
2022-12-15T02:22:49.565Z,99.05
2022-12-15T02:24:10.727Z,98.98
2022-12-15T02:25:45.967Z,98.53
2022-12-15T02:26:59.517Z,98.75
2022-12-15T02:28:06.516Z,98.32
2022-12-15T02:29:18.408Z,98.47
2022-12-15T02:30:33.216Z,98.47
2022-12-15T02:31:50.412Z,98.70
2022-12-15T02:32:50.216Z,98.33
2022-12-15T02:33:53.365Z,98.38
2022-12-15T02:34:57.935Z,97.88
2022-12-15T02:36:07.722Z,98.09
2022-12-15T02:37:11.563Z,97.87
2022-12-15T02:38:08.954Z,97.64
2022-12-15T02:39:06.302Z,97.56
2022-12-15T02:40:05.617Z,97.33
2022-12-15T02:41:04.431Z,98.06
2022-12-15T02:42:00.990Z,98.01
2022-12-15T02:43:02.972Z,98.14
2022-12-15T02:44:01.937Z,97.65
2022-12-15T02:45:03.181Z,97.97
2022-12-15T02:46:31.316Z,97.90
2022-12-15T02:47:33.824Z,98.09
2022-12-15T02:48:34.416Z,97.26
2022-12-15T02:49:45.950Z,97.35
2022-12-15T02:50:58.373Z,97.40
2022-12-15T02:52:31.491Z,97.60
2022-12-15T02:53:46.379Z,98.16
2022-12-15T02:54:48.839Z,97.60
2022-12-15T02:56:00.852Z,97.66
2022-12-15T02:57:40.894Z,97.58
2022-12-15T02:58:37.490Z,97.71
2022-12-15T02:59:43.020Z,97.79
2022-12-15T03:00:45.564Z,98.29
2022-12-15T03:02:03.682Z,98.28
2022-12-15T03:03:00.873Z,98.24
2022-12-15T03:03:59.857Z,98.19
2022-12-15T03:04:57.837Z,97.92
2022-12-15T03:05:55.500Z,97.98
2022-12-15T03:07:01.129Z,97.91
2022-12-15T03:07:58.397Z,98.40
2022-12-15T03:08:54.996Z,98.03
2022-12-15T03:09:52.198Z,97.98
2022-12-15T03:10:53.018Z,98.20
2022-12-15T03:11:49.866Z,98.33
2022-12-15T03:12:46.588Z,98.49
2022-12-15T03:13:43.244Z,99.12
2022-12-15T03:14:39.877Z,99.26
2022-12-15T03:15:36.881Z,99.14
2022-12-15T03:16:33.722Z,99.43
2022-12-15T03:17:30.387Z,99.19
2022-12-15T03:18:27.246Z,98.97
2022-12-15T03:19:24.466Z,99.39
2022-12-15T03:20:21.051Z,99.69
2022-12-15T03:21:17.711Z,99.21
2022-12-15T03:22:14.291Z,99.54
2022-12-15T03:23:10.838Z,99.22
2022-12-15T03:24:07.702Z,99.17
2022-12-15T03:25:05.208Z,99.23
2022-12-15T03:26:01.804Z,99.18
2022-12-15T03:26:58.382Z,99.26
2022-12-15T03:27:55.058Z,99.44
2022-12-15T03:28:51.642Z,99.19
2022-12-15T03:29:48.226Z,98.70
2022-12-15T03:30:44.879Z,98.73
2022-12-15T03:31:41.571Z,98.66
2022-12-15T03:32:38.161Z,98.53
2022-12-15T03:33:35.185Z,98.63
2022-12-15T03:34:31.981Z,98.70
2022-12-15T03:35:28.655Z,98.72
2022-12-15T03:36:25.246Z,99.00
2022-12-15T03:37:21.968Z,99.05
2022-12-15T03:38:18.980Z,99.34
2022-12-15T03:39:15.691Z,99.40
2022-12-15T03:40:14.017Z,99.12
2022-12-15T03:41:10.647Z,99.33
2022-12-15T03:42:07.326Z,99.16
2022-12-15T03:43:04.009Z,98.85
2022-12-15T03:44:00.774Z,98.98
2022-12-15T03:44:57.416Z,98.46
2022-12-15T03:45:54.128Z,98.33
2022-12-15T03:46:50.772Z,98.72
2022-12-15T03:47:48.070Z,98.41
2022-12-15T03:48:44.750Z,97.94
2022-12-15T03:49:41.337Z,97.47
2022-12-15T03:50:38.060Z,97.36
2022-12-15T03:51:34.680Z,97.28
2022-12-15T03:52:31.666Z,96.71
2022-12-15T03:53:28.502Z,96.88
2022-12-15T03:54:25.283Z,96.79
2022-12-15T03:55:22.653Z,96.64
2022-12-15T03:56:19.405Z,96.38
2022-12-15T03:57:16.001Z,96.97
2022-12-15T03:58:12.610Z,96.89
2022-12-15T03:59:09.139Z,97.37
2022-12-15T04:00:07.299Z,97.23
2022-12-15T04:01:21.364Z,97.10
2022-12-15T04:02:18.176Z,97.39
2022-12-15T04:03:14.969Z,97.17
2022-12-15T04:04:11.595Z,97.55
2022-12-15T04:05:09.233Z,97.35
2022-12-15T04:06:06.159Z,97.57
2022-12-15T04:07:02.726Z,97.86
2022-12-15T04:08:00.717Z,97.74
2022-12-15T04:08:57.603Z,97.43
2022-12-15T04:09:54.127Z,97.22
2022-12-15T04:10:50.729Z,97.50
2022-12-15T04:11:47.314Z,97.04
2022-12-15T04:12:43.995Z,97.13
2022-12-15T04:13:40.940Z,96.87
2022-12-15T04:14:42.619Z,96.75
2022-12-15T04:15:40.484Z,96.89
2022-12-15T04:16:37.140Z,97.10
2022-12-15T04:17:34.089Z,97.78
2022-12-15T04:18:30.833Z,97.50
2022-12-15T04:19:46.040Z,97.83
2022-12-15T04:20:42.671Z,97.66
2022-12-15T04:21:39.314Z,97.87
2022-12-15T04:22:41.080Z,97.76
2022-12-15T04:23:37.676Z,97.77
2022-12-15T04:24:52.679Z,97.23
2022-12-15T04:26:08.642Z,97.95
2022-12-15T04:27:23.757Z,98.37
2022-12-15T04:28:38.973Z,98.86
2022-12-15T04:29:54.171Z,98.43
2022-12-15T04:31:28.738Z,98.51
2022-12-15T04:32:43.997Z,99.09
2022-12-15T04:34:08.559Z,99.40
2022-12-15T04:35:24.305Z,99.59
2022-12-15T04:36:39.824Z,99.78
2022-12-15T04:37:55.473Z,99.56
2022-12-15T04:39:10.798Z,99.78
2022-12-15T04:40:26.889Z,99.79
2022-12-15T04:41:43.554Z,100.00
2022-12-15T04:43:02.735Z,100.00
2022-12-15T04:44:18.226Z,99.81
2022-12-15T04:45:35.414Z,99.79
2022-12-15T04:46:50.779Z,99.70
2022-12-15T04:48:06.777Z,99.48
2022-12-15T04:49:21.696Z,99.38
2022-12-15T04:50:36.658Z,99.80
2022-12-15T04:51:52.658Z,99.21
2022-12-15T04:53:08.110Z,99.53
2022-12-15T04:54:23.053Z,99.17
2022-12-15T04:55:37.957Z,99.09
2022-12-15T04:56:53.425Z,98.99
2022-12-15T04:58:08.255Z,99.28
2022-12-15T04:59:23.438Z,99.34
2022-12-15T05:00:38.606Z,99.10
2022-12-15T05:01:53.633Z,99.23
2022-12-15T05:03:11.307Z,99.64
2022-12-15T05:04:30.257Z,99.46
2022-12-15T05:05:45.431Z,99.40
2022-12-15T05:07:00.589Z,99.50
2022-12-15T05:08:18.664Z,99.63
2022-12-15T05:09:33.505Z,99.01
2022-12-15T05:10:48.456Z,99.13
2022-12-15T05:12:03.369Z,98.99
2022-12-15T05:13:26.072Z,99.18
2022-12-15T05:14:41.227Z,99.26
2022-12-15T05:15:56.312Z,99.33
2022-12-15T05:17:11.373Z,99.48
2022-12-15T05:18:26.631Z,99.27
2022-12-15T05:19:41.612Z,99.29
2022-12-15T05:20:56.759Z,99.78
2022-12-15T05:22:11.924Z,99.56
2022-12-15T05:23:27.357Z,99.76
2022-12-15T05:24:42.578Z,99.85
2022-12-15T05:25:57.671Z,99.54
2022-12-15T05:27:12.577Z,99.66
2022-12-15T05:28:27.695Z,99.96
2022-12-15T05:29:42.566Z,99.65
2022-12-15T05:30:57.428Z,99.51
2022-12-15T05:31:54.922Z,99.77
2022-12-15T05:32:51.672Z,99.51
2022-12-15T05:33:48.258Z,99.03
2022-12-15T05:34:45.281Z,99.61
2022-12-15T05:35:41.988Z,99.51
2022-12-15T05:36:38.582Z,99.17
2022-12-15T05:37:35.223Z,99.43
2022-12-15T05:38:31.850Z,99.60
2022-12-15T05:39:28.768Z,99.55
2022-12-15T05:40:25.362Z,99.88
2022-12-15T05:41:22.372Z,99.51
2022-12-15T05:42:18.938Z,99.46
2022-12-15T05:43:15.512Z,98.90
2022-12-15T05:44:12.642Z,99.28
2022-12-15T05:45:10.281Z,98.98
2022-12-15T05:46:06.962Z,99.30
2022-12-15T05:47:04.829Z,98.57
2022-12-15T05:48:01.535Z,99.09
2022-12-15T05:48:58.178Z,99.14
2022-12-15T05:49:54.824Z,98.84
2022-12-15T05:50:51.429Z,98.78
2022-12-15T05:51:48.372Z,99.20
2022-12-15T05:52:49.336Z,99.36
2022-12-15T05:53:46.203Z,99.31
2022-12-15T05:54:42.859Z,99.22
2022-12-15T05:55:39.428Z,99.25
2022-12-15T05:56:36.547Z,99.19
2022-12-15T05:57:33.228Z,99.59
2022-12-15T05:58:29.815Z,99.71
2022-12-15T05:59:26.454Z,100.00
2022-12-15T06:00:23.589Z,99.48
2022-12-15T06:01:20.347Z,100.00
2022-12-15T06:02:17.162Z,100.00
2022-12-15T06:03:13.892Z,99.75
2022-12-15T06:04:13.663Z,100.00
2022-12-15T06:05:10.424Z,99.45
2022-12-15T06:06:08.751Z,99.95
2022-12-15T06:07:05.512Z,100.00
2022-12-15T06:08:02.166Z,100.00
2022-12-15T06:08:58.939Z,99.89
2022-12-15T06:09:55.568Z,99.82
2022-12-15T06:10:56.011Z,99.91
2022-12-15T06:11:52.721Z,99.80
2022-12-15T06:12:49.270Z,99.28
2022-12-15T06:13:46.712Z,99.63
2022-12-15T06:14:43.350Z,99.67
2022-12-15T06:15:39.958Z,99.98
2022-12-15T06:16:42.553Z,100.00
2022-12-15T06:17:40.899Z,99.83
2022-12-15T06:18:39.843Z,100.00
2022-12-15T06:19:36.379Z,99.76
2022-12-15T06:20:32.989Z,100.00
2022-12-15T06:21:32.765Z,100.00
2022-12-15T06:22:29.877Z,100.00
2022-12-15T06:23:28.971Z,100.00
2022-12-15T06:24:26.126Z,99.61
2022-12-15T06:25:22.769Z,100.00
2022-12-15T06:26:25.503Z,100.00
2022-12-15T06:27:22.142Z,100.00
2022-12-15T06:28:23.857Z,100.00
2022-12-15T06:29:20.467Z,100.00
2022-12-15T06:30:17.129Z,100.00
2022-12-15T06:31:14.627Z,100.00
2022-12-15T06:32:11.224Z,100.00
2022-12-15T06:33:07.807Z,100.00
2022-12-15T06:34:06.890Z,100.00
2022-12-15T06:35:03.606Z,100.00
2022-12-15T06:36:11.437Z,100.00
2022-12-15T06:37:08.117Z,100.00
2022-12-15T06:38:04.669Z,100.00
2022-12-15T06:39:02.709Z,100.00
2022-12-15T06:39:59.314Z,100.00
2022-12-15T06:40:56.702Z,100.00
2022-12-15T06:41:53.343Z,100.00
2022-12-15T06:42:49.986Z,100.00
2022-12-15T06:43:51.323Z,100.00
2022-12-15T06:44:48.133Z,100.00
2022-12-15T06:45:50.523Z,100.00
2022-12-15T06:46:47.290Z,100.00
2022-12-15T06:47:43.948Z,100.00
2022-12-15T06:48:42.301Z,99.26
2022-12-15T06:49:38.951Z,100.00
2022-12-15T06:50:35.647Z,99.60
2022-12-15T06:51:32.794Z,99.75
2022-12-15T06:52:30.815Z,99.77
2022-12-15T06:53:27.525Z,99.68
2022-12-15T06:54:24.887Z,99.59
2022-12-15T06:55:21.739Z,99.99
2022-12-15T06:56:28.923Z,100.00
2022-12-15T06:57:29.631Z,100.00
2022-12-15T06:58:26.189Z,100.00
2022-12-15T06:59:22.784Z,99.72
2022-12-15T07:00:19.754Z,99.96
2022-12-15T07:01:17.709Z,100.00
2022-12-15T07:02:20.146Z,100.00
2022-12-15T07:03:20.217Z,100.00
2022-12-15T07:04:17.149Z,100.00
2022-12-15T07:05:13.817Z,100.00
2022-12-15T07:06:13.206Z,100.00
2022-12-15T07:07:10.840Z,100.00
2022-12-15T07:08:07.505Z,100.00
2022-12-15T07:09:07.535Z,100.00
2022-12-15T07:10:04.691Z,100.00
2022-12-15T07:11:04.003Z,100.00
2022-12-15T07:12:00.783Z,100.00
2022-12-15T07:12:57.927Z,100.00
2022-12-15T07:13:54.624Z,100.00
2022-12-15T07:14:53.562Z,99.50
2022-12-15T07:15:50.736Z,99.45
2022-12-15T07:16:47.557Z,99.64
2022-12-15T07:17:44.205Z,99.30
2022-12-15T07:18:41.413Z,98.97
2022-12-15T07:19:38.098Z,98.68
2022-12-15T07:20:34.779Z,98.20
2022-12-15T07:21:32.314Z,97.93
2022-12-15T07:22:29.183Z,97.69
2022-12-15T07:23:46.011Z,97.94
2022-12-15T07:24:42.316Z,98.10
2022-12-15T07:25:39.979Z,98.44
2022-12-15T07:26:36.572Z,98.40
2022-12-15T07:27:33.243Z,97.92
2022-12-15T07:28:30.822Z,97.68
2022-12-15T07:29:27.705Z,97.50
2022-12-15T07:30:24.309Z,97.70
2022-12-15T07:31:21.593Z,97.50
2022-12-15T07:32:18.821Z,98.35
2022-12-15T07:33:15.985Z,98.00
2022-12-15T07:34:12.603Z,97.96
2022-12-15T07:35:09.521Z,98.11
2022-12-15T07:36:08.279Z,98.00
2022-12-15T07:37:04.972Z,98.33
2022-12-15T07:38:01.567Z,97.95
2022-12-15T07:39:02.842Z,97.89
2022-12-15T07:39:59.385Z,97.70
2022-12-15T07:41:00.520Z,97.63
2022-12-15T07:41:57.076Z,97.46
2022-12-15T07:42:53.745Z,97.21
2022-12-15T07:43:50.327Z,97.34
2022-12-15T07:44:46.970Z,97.46
2022-12-15T07:45:52.448Z,97.84
2022-12-15T07:46:49.445Z,97.37
2022-12-15T07:47:50.274Z,96.87
2022-12-15T07:48:50.364Z,96.65
2022-12-15T07:49:47.746Z,96.71
2022-12-15T07:50:44.673Z,96.47
2022-12-15T07:51:41.675Z,96.68
2022-12-15T07:52:38.244Z,96.54
2022-12-15T07:53:35.925Z,96.26
2022-12-15T07:54:32.850Z,96.85
2022-12-15T07:55:57.048Z,96.76
2022-12-15T07:56:50.187Z,96.40
2022-12-15T07:57:48.227Z,95.97
2022-12-15T07:58:45.093Z,96.05
2022-12-15T07:59:42.074Z,96.16
2022-12-15T08:00:40.729Z,96.79
2022-12-15T08:01:40.627Z,97.01
2022-12-15T08:02:37.399Z,97.03
2022-12-15T08:03:35.056Z,96.53
2022-12-15T08:04:32.221Z,96.34
2022-12-15T08:05:28.936Z,96.12
2022-12-15T08:06:25.607Z,96.12
2022-12-15T08:07:22.224Z,95.95
2022-12-15T08:08:18.813Z,96.76
2022-12-15T08:09:15.531Z,96.59
2022-12-15T08:10:12.231Z,96.25
2022-12-15T08:11:12.004Z,95.54
2022-12-15T08:12:08.576Z,95.80
2022-12-15T08:13:05.228Z,95.33
2022-12-15T08:14:03.541Z,95.54
2022-12-15T08:15:01.481Z,95.19
2022-12-15T08:15:58.094Z,95.39
2022-12-15T08:16:55.068Z,95.54
2022-12-15T08:17:51.688Z,95.11
2022-12-15T08:18:49.012Z,95.47
2022-12-15T08:19:45.765Z,95.43
2022-12-15T08:20:42.409Z,95.37
2022-12-15T08:21:40.485Z,94.69
2022-12-15T08:22:37.982Z,94.97
2022-12-15T08:23:35.692Z,95.14
2022-12-15T08:24:32.345Z,95.04
2022-12-15T08:25:29.030Z,94.27
2022-12-15T08:26:30.277Z,93.95
2022-12-15T08:27:27.481Z,94.33
2022-12-15T08:28:24.183Z,93.96
2022-12-15T08:30:37.578Z,94.81
2022-12-15T08:31:34.667Z,94.67
2022-12-15T08:32:31.339Z,94.39
2022-12-15T08:33:28.272Z,93.40
2022-12-15T08:34:25.134Z,93.68
2022-12-15T08:35:54.420Z,93.65
2022-12-15T08:36:38.320Z,94.26
2022-12-15T08:37:34.996Z,94.65
2022-12-15T08:38:33.123Z,94.59
2022-12-15T08:39:29.858Z,94.06
2022-12-15T08:40:26.487Z,94.11
2022-12-15T08:41:33.550Z,94.50
2022-12-15T08:42:37.319Z,94.01
2022-12-15T08:43:34.238Z,93.76
2022-12-15T08:44:31.573Z,94.04
2022-12-15T08:45:28.299Z,93.22
2022-12-15T08:46:36.360Z,93.83
2022-12-15T08:47:32.957Z,94.11
2022-12-15T08:48:30.134Z,93.79
2022-12-15T08:49:26.751Z,94.13
2022-12-15T08:50:23.371Z,94.67
2022-12-15T08:51:21.297Z,95.07
2022-12-15T08:52:17.928Z,94.33
2022-12-15T08:53:42.579Z,94.91
2022-12-15T08:54:32.538Z,94.74
2022-12-15T08:55:29.151Z,94.87
2022-12-15T08:56:27.609Z,94.84
2022-12-15T08:57:24.271Z,95.46
2022-12-15T08:58:21.074Z,94.52
2022-12-15T08:59:17.840Z,94.51
2022-12-15T09:00:16.134Z,94.07
2022-12-15T09:01:23.737Z,94.40
2022-12-15T09:02:21.036Z,94.04
2022-12-15T09:03:17.687Z,93.21
2022-12-15T09:04:14.460Z,93.46
2022-12-15T09:05:11.174Z,93.31
2022-12-15T09:06:15.780Z,91.86
2022-12-15T09:07:12.483Z,90.80
2022-12-15T09:08:09.154Z,90.77
2022-12-15T09:09:07.773Z,90.48
2022-12-15T09:10:04.648Z,91.00
2022-12-15T09:11:02.261Z,91.37
2022-12-15T09:11:59.064Z,91.79
2022-12-15T09:12:55.700Z,92.04
2022-12-15T09:13:52.515Z,92.50
2022-12-15T09:14:49.072Z,93.03
2022-12-15T09:16:09.032Z,92.21
2022-12-15T09:17:02.407Z,92.56
2022-12-15T09:17:59.024Z,92.54
2022-12-15T09:18:57.946Z,92.57
2022-12-15T09:19:54.563Z,92.13
2022-12-15T09:20:51.228Z,93.01
2022-12-15T09:21:48.365Z,93.08
2022-12-15T09:22:45.006Z,92.45
2022-12-15T09:23:52.450Z,92.29
2022-12-15T09:24:49.701Z,92.48
2022-12-15T09:25:46.734Z,92.48
2022-12-15T09:26:43.391Z,92.55
2022-12-15T09:27:39.992Z,92.13
2022-12-15T09:28:37.999Z,92.57
2022-12-15T09:29:35.077Z,91.59
2022-12-15T09:30:31.819Z,91.63
2022-12-15T09:31:32.810Z,91.68
2022-12-15T09:32:29.578Z,90.83
2022-12-15T09:33:26.330Z,91.09
2022-12-15T09:34:22.969Z,91.06
2022-12-15T09:35:20.775Z,90.32
2022-12-15T09:36:17.430Z,90.29
2022-12-15T09:37:14.077Z,89.82
2022-12-15T09:38:10.761Z,89.06
2022-12-15T09:39:08.912Z,88.97
2022-12-15T09:40:06.696Z,88.74
2022-12-15T09:41:13.979Z,89.01
2022-12-15T09:42:24.807Z,89.18
2022-12-15T09:43:46.469Z,89.39
2022-12-15T09:44:43.436Z,88.84
2022-12-15T09:45:43.735Z,88.48
2022-12-15T09:47:07.124Z,87.96
2022-12-15T09:48:10.519Z,88.29
2022-12-15T09:49:48.219Z,88.18
2022-12-15T09:50:48.077Z,88.33
2022-12-15T09:51:51.734Z,87.03
2022-12-15T09:53:00.299Z,86.96
2022-12-15T09:53:57.383Z,87.59
2022-12-15T09:54:54.789Z,87.71
2022-12-15T09:56:00.504Z,88.59
2022-12-15T09:57:03.524Z,89.63
2022-12-15T09:58:11.563Z,89.97
2022-12-15T09:59:34.151Z,89.04
2022-12-15T10:00:45.636Z,89.44
2022-12-15T10:01:49.330Z,89.74
2022-12-15T10:03:05.093Z,90.38
2022-12-15T10:04:12.736Z,90.01
2022-12-15T10:06:54.782Z,87.95
2022-12-15T10:07:51.958Z,88.54
2022-12-15T10:08:54.556Z,88.03
2022-12-15T10:09:51.169Z,88.58
2022-12-15T10:11:02.306Z,89.49
2022-12-15T10:12:05.248Z,89.49
2022-12-15T10:13:13.519Z,89.44
2022-12-15T10:14:28.266Z,89.77
2022-12-15T10:15:27.545Z,89.52
2022-12-15T10:16:36.443Z,88.53
2022-12-15T10:17:52.295Z,88.39
2022-12-15T10:19:14.118Z,87.50
2022-12-15T10:20:19.609Z,88.29
2022-12-15T10:21:16.243Z,87.95
2022-12-15T10:22:25.942Z,87.85
2022-12-15T10:23:22.697Z,87.81
2022-12-15T10:24:59.780Z,87.78
2022-12-15T10:25:46.905Z,86.68
2022-12-15T10:26:55.663Z,85.72
2022-12-15T10:28:33.764Z,86.67
2022-12-15T10:29:43.249Z,86.77
2022-12-15T10:30:50.163Z,87.21
2022-12-15T10:31:54.838Z,86.71
2022-12-15T10:33:11.440Z,87.02
2022-12-15T10:34:26.895Z,87.77
2022-12-15T10:35:28.782Z,87.98
2022-12-15T10:36:25.438Z,87.32
2022-12-15T10:37:22.055Z,87.75
2022-12-15T10:38:42.426Z,87.33
2022-12-15T10:39:41.636Z,87.75
2022-12-15T10:41:08.741Z,88.08
2022-12-15T10:42:17.491Z,88.16
2022-12-15T10:43:38.521Z,88.94
2022-12-15T10:44:40.409Z,88.05
2022-12-15T10:45:39.919Z,87.47
2022-12-15T10:46:36.573Z,87.64
2022-12-15T10:47:33.234Z,87.29
2022-12-15T10:48:30.212Z,87.37
2022-12-15T10:49:26.775Z,86.75
2022-12-15T10:50:25.526Z,86.42
2022-12-15T10:51:31.479Z,85.83
2022-12-15T10:52:34.239Z,85.66
2022-12-15T10:53:50.556Z,85.68
2022-12-15T10:54:49.480Z,85.86
2022-12-15T10:55:50.066Z,86.50
2022-12-15T10:56:53.055Z,86.19
2022-12-15T10:57:59.381Z,86.78
2022-12-15T10:58:58.944Z,87.25
2022-12-15T10:59:59.481Z,87.61
2022-12-15T11:01:17.743Z,87.11
2022-12-15T11:02:32.852Z,86.91
2022-12-15T11:03:31.073Z,87.13
2022-12-15T11:04:32.667Z,86.99
2022-12-15T11:05:29.370Z,87.26
2022-12-15T11:06:31.583Z,86.74
2022-12-15T11:07:37.820Z,87.23
2022-12-15T11:08:34.953Z,87.15
2022-12-15T11:09:36.977Z,86.99
2022-12-15T11:10:52.141Z,87.33
2022-12-15T11:12:11.932Z,87.25
2022-12-15T11:13:35.407Z,87.45
2022-12-15T11:14:43.873Z,87.65
2022-12-15T11:15:44.278Z,87.61
2022-12-15T11:16:51.866Z,87.72
2022-12-15T11:17:57.673Z,87.25
2022-12-15T11:19:13.965Z,87.56
2022-12-15T11:20:22.219Z,87.68
2022-12-15T11:21:28.214Z,87.27
2022-12-15T11:22:46.163Z,87.19
2022-12-15T11:24:02.046Z,87.72
2022-12-15T11:25:05.630Z,88.35
2022-12-15T11:26:13.756Z,88.28
2022-12-15T11:27:15.543Z,88.66
2022-12-15T11:28:20.661Z,88.74
2022-12-15T11:29:23.502Z,89.12
2022-12-15T11:30:35.348Z,88.21
2022-12-15T11:31:41.828Z,88.12
2022-12-15T11:32:42.914Z,88.11
2022-12-15T11:33:39.603Z,87.94
2022-12-15T11:34:39.230Z,87.80
2022-12-15T11:35:48.930Z,87.36
2022-12-15T11:37:06.718Z,86.76
2022-12-15T11:38:24.484Z,86.09
2022-12-15T11:39:33.315Z,85.67
2022-12-15T11:40:36.436Z,85.57
2022-12-15T11:41:41.564Z,85.85
2022-12-15T11:42:40.859Z,85.11
2022-12-15T11:43:50.367Z,84.92
2022-12-15T11:45:07.472Z,85.42
2022-12-15T11:46:09.959Z,85.79
2022-12-15T11:47:19.446Z,85.84
2022-12-15T11:48:20.894Z,86.38
2022-12-15T11:49:26.792Z,86.26
2022-12-15T11:50:31.973Z,86.71
2022-12-15T11:51:58.970Z,86.74
2022-12-15T11:52:55.623Z,87.13
2022-12-15T11:54:07.083Z,87.48
2022-12-15T11:55:14.911Z,87.81
2022-12-15T11:56:37.081Z,88.44
2022-12-15T11:57:53.023Z,88.84
2022-12-15T11:59:22.341Z,88.75
2022-12-15T12:00:20.786Z,88.72
2022-12-15T12:01:29.008Z,88.64
2022-12-15T12:03:03.441Z,89.95
2022-12-15T12:04:14.971Z,89.52
2022-12-15T12:05:23.675Z,89.21
2022-12-15T12:06:32.842Z,88.75
2022-12-15T12:07:42.103Z,88.67
2022-12-15T12:08:47.115Z,88.44
2022-12-15T12:10:01.167Z,88.71
2022-12-15T12:11:00.450Z,89.02
2022-12-15T12:12:11.956Z,89.25
2022-12-15T12:13:17.306Z,88.79
2022-12-15T12:14:39.125Z,88.78
2022-12-15T12:15:39.906Z,88.45
2022-12-15T12:16:42.297Z,87.93
2022-12-15T12:18:03.152Z,87.93
2022-12-15T12:19:13.579Z,88.24
2022-12-15T12:20:27.102Z,89.01
2022-12-15T12:21:32.941Z,88.91
2022-12-15T12:23:02.428Z,88.80
2022-12-15T12:24:04.085Z,89.03
2022-12-15T12:25:15.457Z,88.63
2022-12-15T12:26:29.257Z,88.14
2022-12-15T12:27:50.323Z,88.56
2022-12-15T12:28:52.808Z,88.95
2022-12-15T12:29:53.883Z,89.11
2022-12-15T12:30:52.744Z,88.99
2022-12-15T12:32:04.023Z,88.25
2022-12-15T12:33:11.143Z,87.98
2022-12-15T12:34:27.027Z,87.65
2022-12-15T12:35:35.037Z,86.95
2022-12-15T12:36:31.740Z,86.62
2022-12-15T12:37:42.074Z,87.19
2022-12-15T12:38:46.346Z,87.47
2022-12-15T12:39:49.700Z,87.03
2022-12-15T12:40:56.860Z,86.44
2022-12-15T12:41:56.314Z,86.50
2022-12-15T12:43:00.132Z,86.17
2022-12-15T12:44:00.892Z,86.54
2022-12-15T12:44:57.496Z,85.72
2022-12-15T12:45:59.492Z,86.12
2022-12-15T12:46:59.210Z,85.93
2022-12-15T12:48:00.759Z,85.51
2022-12-15T12:49:09.282Z,86.23
2022-12-15T12:50:21.445Z,87.02
2022-12-15T12:51:30.716Z,86.96
2022-12-15T12:52:34.704Z,87.23
2022-12-15T12:53:34.661Z,87.48
2022-12-15T12:54:34.403Z,87.66
2022-12-15T12:55:42.587Z,87.74
2022-12-15T12:58:02.943Z,88.48
2022-12-15T12:58:59.614Z,88.14
2022-12-15T13:00:24.390Z,86.69
2022-12-15T13:01:33.020Z,86.54
2022-12-15T13:02:35.285Z,86.88
2022-12-15T13:03:32.469Z,87.82
2022-12-15T13:04:29.296Z,88.26
2022-12-15T13:05:34.705Z,88.81
2022-12-15T13:06:34.870Z,88.56
2022-12-15T13:07:37.765Z,88.77
2022-12-15T13:08:51.372Z,88.86
2022-12-15T13:10:02.851Z,88.52
2022-12-15T13:11:45.786Z,88.65
2022-12-15T13:12:53.789Z,88.95
2022-12-15T13:13:53.186Z,88.87
2022-12-15T13:14:52.740Z,89.27
2022-12-15T13:15:51.209Z,89.34
2022-12-15T13:17:17.219Z,89.58
2022-12-15T13:18:18.922Z,89.39
2022-12-15T13:19:15.567Z,89.37
2022-12-15T13:20:22.950Z,89.20
2022-12-15T13:21:48.523Z,88.99
2022-12-15T13:22:45.766Z,89.01
2022-12-15T13:23:46.104Z,89.13
2022-12-15T13:24:50.695Z,88.97
2022-12-15T13:25:56.057Z,89.04
2022-12-15T13:26:53.395Z,88.75
2022-12-15T13:28:11.040Z,88.78
2022-12-15T13:29:09.623Z,88.49
2022-12-15T13:30:09.401Z,88.55
2022-12-15T13:31:21.312Z,88.43
2022-12-15T13:32:29.360Z,87.43
2022-12-15T13:33:27.284Z,86.65
2022-12-15T13:34:26.342Z,87.11
2022-12-15T13:35:29.442Z,87.14
2022-12-15T13:36:38.291Z,87.47
2022-12-15T13:37:55.960Z,87.91
2022-12-15T13:38:55.330Z,87.98
2022-12-15T13:39:55.587Z,88.57
2022-12-15T13:40:54.240Z,88.28
2022-12-15T13:42:31.475Z,88.70
2022-12-15T13:43:41.622Z,88.64
2022-12-15T13:44:44.122Z,89.29
2022-12-15T13:45:51.189Z,89.72